Snow/Ice From: 17-12-2017 10:00 Until: 18-12-2017 06:00 warning for: Snow/Ice Level: Yellow info button

Although rather usual in this region, locally or potentially dangerous phenomena are expected. (such as local winds, summer thunderstorms, rising streams or high waves) Be aware and pay attention to the latest weather updates, especially if you carry out activities exposed to weather or close to a stream or shoreline. 


Meteo18 Weather Cam more information Meteo18 Weather Cam


Thunder radar more information blitzortung!


warning for Snow/Ice more information rain snow radar


Visit our other weather sites:

Template documentation
and downloads

And another site



Weather Underground History page Text

Daily Summary for September 27, 2017 Units:  Metric    English   Both
« Previous Day
Next Day »
Daily Weekly Monthly Yearly Custom
  High: Low: Average:
Temperature: 22.6 °C 10.3 °C 15.1 °C
Dew Point: 16.7 °C 9.8 °C 13 °C
Humidity: 98 % 63 % 89 %
Wind Speed: 11.3 km/h 0.0 km/h 1 km/h
Wind Gust: 14.5 km/h - -
Wind:- - South
Pressure: 1023.2 hPa 1020.9 hPa -
Precipitation: 0.3 mm    
Historical Graphs
 
 
Tabular Data for September 27, 2017
Time Temperature Dew Point Pressure Wind Wind Speed Wind Gust Humidity Rainfall Rate (Hourly)
00:02 13.6 °C 13.0 °C 1022.9 hPa Calm     96 % 0.0 mm
00:12 13.5 °C 12.9 °C 1022.9 hPa Calm     96 % 0.0 mm
00:17 13.4 °C 12.8 °C 1022.9 hPa Calm     96 % 0.0 mm
00:22 13.4 °C 12.8 °C 1022.9 hPa Calm     96 % 0.0 mm
00:32 13.3 °C 12.7 °C 1022.9 hPa Calm     96 % 0.0 mm
00:42 13.1 °C 12.5 °C 1022.9 hPa Calm     96 % 0.0 mm
00:47 13.0 °C 12.4 °C 1022.9 hPa Calm     96 % 0.0 mm
00:52 12.8 °C 12.2 °C 1022.9 hPa Calm     96 % 0.0 mm
00:57 12.6 °C 12.0 °C 1022.9 hPa Calm     96 % 0.0 mm
01:02 12.6 °C 12.0 °C 1022.9 hPa Calm     96 % 0.0 mm
01:12 12.5 °C 11.9 °C 1022.6 hPa Calm     96 % 0.0 mm
01:17 12.3 °C 11.7 °C 1022.9 hPa Calm     96 % 0.0 mm
01:22 12.2 °C 11.6 °C 1022.9 hPa Calm     96 % 0.0 mm
01:32 12.1 °C 11.5 °C 1022.9 hPa Calm     96 % 0.0 mm
01:37 12.1 °C 11.5 °C 1022.9 hPa Calm     96 % 0.0 mm
01:42 12.1 °C 11.5 °C 1022.9 hPa Calm     96 % 0.0 mm
01:47 12.1 °C 11.5 °C 1022.9 hPa Calm     96 % 0.0 mm
01:52 12.1 °C 11.5 °C 1022.9 hPa Calm     96 % 0.0 mm
01:57 12.2 °C 11.7 °C 1022.9 hPa Calm     97 % 0.0 mm
02:02 12.2 °C 11.7 °C 1022.9 hPa Calm     97 % 0.0 mm
02:12 11.9 °C 11.3 °C 1022.9 hPa Calm     96 % 0.0 mm
02:17 11.9 °C 11.3 °C 1022.9 hPa Calm     96 % 0.0 mm
02:22 11.8 °C 11.2 °C 1022.9 hPa Calm     96 % 0.0 mm
02:32 11.7 °C 11.2 °C 1022.6 hPa Calm     97 % 0.0 mm
02:42 11.7 °C 11.2 °C 1022.6 hPa Calm     97 % 0.0 mm
02:47 11.6 °C 11.0 °C 1022.6 hPa Calm     96 % 0.0 mm
02:52 11.5 °C 11.0 °C 1022.6 hPa Calm     97 % 0.0 mm
02:57 11.4 °C 10.8 °C 1022.9 hPa Calm     96 % 0.0 mm
03:02 11.3 °C 10.8 °C 1022.6 hPa Calm     97 % 0.0 mm
03:12 11.4 °C 10.9 °C 1022.6 hPa Calm     97 % 0.0 mm
03:17 11.4 °C 10.9 °C 1022.6 hPa Calm     97 % 0.0 mm
03:22 11.4 °C 10.9 °C 1022.6 hPa Calm     97 % 0.0 mm
03:27 11.4 °C 10.9 °C 1022.6 hPa Calm     97 % 0.0 mm
03:32 11.4 °C 10.9 °C 1022.6 hPa Calm     97 % 0.0 mm
03:37 11.4 °C 10.9 °C 1022.6 hPa Calm     97 % 0.0 mm
03:42 11.3 °C 10.8 °C 1022.6 hPa Calm     97 % 0.0 mm
03:47 11.3 °C 10.8 °C 1022.2 hPa Calm     97 % 0.0 mm
03:52 11.3 °C 10.8 °C 1022.6 hPa Calm     97 % 0.0 mm
03:57 11.3 °C 10.8 °C 1022.2 hPa Calm     97 % 0.0 mm
04:02 11.2 °C 10.7 °C 1022.6 hPa Calm     97 % 0.0 mm
04:07 11.1 °C 10.6 °C 1022.6 hPa Calm     97 % 0.0 mm
04:12 11.1 °C 10.6 °C 1022.6 hPa Calm     97 % 0.0 mm
04:17 11.1 °C 10.6 °C 1022.6 hPa Calm     97 % 0.0 mm
04:22 11.0 °C 10.5 °C 1022.2 hPa Calm     97 % 0.0 mm
04:32 10.8 °C 10.3 °C 1022.2 hPa Calm     97 % 0.0 mm
04:37 10.7 °C 10.2 °C 1022.2 hPa Calm     97 % 0.0 mm
04:42 10.7 °C 10.2 °C 1022.2 hPa Calm     97 % 0.0 mm
04:47 10.6 °C 10.1 °C 1022.2 hPa Calm     97 % 0.0 mm
04:57 10.4 °C 9.9 °C 1022.2 hPa Calm     97 % 0.0 mm
05:02 10.5 °C 10.0 °C 1022.2 hPa Calm     97 % 0.0 mm
05:07 10.6 °C 10.1 °C 1022.2 hPa NNW 1.6 km/h   97 % 0.0 mm
05:12 10.8 °C 10.3 °C 1022.2 hPa Calm   1.6 km/h 97 % 0.0 mm
05:22 10.8 °C 10.3 °C 1022.2 hPa Calm   1.6 km/h 97 % 0.3 mm
05:32 10.7 °C 10.2 °C 1022.2 hPa Calm     97 % 0.3 mm
05:42 10.6 °C 10.1 °C 1022.2 hPa Calm     97 % 0.3 mm
05:52 10.5 °C 10.0 °C 1022.2 hPa Calm     97 % 0.3 mm
05:57 10.5 °C 10.0 °C 1022.2 hPa Calm     97 % 0.3 mm
06:02 10.4 °C 9.9 °C 1022.2 hPa Calm     97 % 0.3 mm
06:12 10.3 °C 9.8 °C 1022.2 hPa Calm   3.2 km/h 97 % 0.3 mm
06:17 10.4 °C 9.9 °C 1022.2 hPa Calm   3.2 km/h 97 % 0.3 mm
06:22 10.4 °C 9.9 °C 1022.6 hPa Calm   3.2 km/h 97 % 0.0 mm
06:32 10.4 °C 9.9 °C 1022.6 hPa Calm   3.2 km/h 97 % 0.0 mm
06:37 10.3 °C 9.8 °C 1022.6 hPa Calm     97 % 0.0 mm
06:42 10.4 °C 9.9 °C 1022.6 hPa Calm     97 % 0.0 mm
06:47 10.4 °C 9.9 °C 1022.6 hPa Calm     97 % 0.0 mm
06:52 10.3 °C 9.8 °C 1022.6 hPa Calm     97 % 0.0 mm
07:02 10.3 °C 9.8 °C 1022.6 hPa Calm     97 % 0.0 mm
07:12 10.3 °C 9.8 °C 1022.2 hPa Calm     97 % 0.0 mm
07:17 10.3 °C 9.8 °C 1022.6 hPa Calm     97 % 0.0 mm
07:22 10.3 °C 9.8 °C 1022.6 hPa Calm     97 % 0.0 mm
07:32 10.4 °C 9.9 °C 1022.6 hPa Calm     97 % 0.0 mm
07:42 10.4 °C 9.9 °C 1022.6 hPa Calm     97 % 0.0 mm
07:52 10.5 °C 10.0 °C 1022.9 hPa Calm     97 % 0.0 mm
07:57 10.5 °C 10.0 °C 1022.9 hPa Calm     97 % 0.0 mm
08:02 10.5 °C 10.0 °C 1022.9 hPa Calm     97 % 0.0 mm
08:12 10.5 °C 10.0 °C 1022.9 hPa Calm     97 % 0.0 mm
08:17 10.5 °C 10.0 °C 1022.9 hPa Calm     97 % 0.0 mm
08:22 10.5 °C 10.0 °C 1022.9 hPa Calm     97 % 0.0 mm
08:32 10.6 °C 10.1 °C 1022.9 hPa Calm     97 % 0.0 mm
08:37 10.5 °C 10.0 °C 1022.9 hPa Calm     97 % 0.0 mm
08:42 10.6 °C 10.1 °C 1022.9 hPa Calm     97 % 0.0 mm
08:47 10.6 °C 10.1 °C 1022.9 hPa Calm     97 % 0.0 mm
08:52 10.6 °C 10.1 °C 1023.2 hPa Calm     97 % 0.0 mm
09:02 10.6 °C 10.1 °C 1022.9 hPa Calm     97 % 0.0 mm
09:07 10.6 °C 10.1 °C 1023.2 hPa Calm     97 % 0.0 mm
09:12 10.7 °C 10.2 °C 1023.2 hPa Calm     97 % 0.0 mm
09:17 10.9 °C 10.4 °C 1023.2 hPa Calm     97 % 0.0 mm
09:22 11.1 °C 10.8 °C 1023.2 hPa Calm     98 % 0.0 mm
09:32 11.3 °C 11.0 °C 1023.2 hPa Calm     98 % 0.0 mm
09:37 11.3 °C 11.0 °C 1023.2 hPa Calm     98 % 0.0 mm
09:42 11.3 °C 10.8 °C 1022.9 hPa Calm     97 % 0.0 mm
09:52 11.4 °C 10.9 °C 1022.9 hPa Calm     97 % 0.0 mm
10:02 11.6 °C 11.1 °C 1022.9 hPa Calm     97 % 0.0 mm
10:12 11.7 °C 11.2 °C 1022.9 hPa Calm     97 % 0.0 mm
10:17 12.0 °C 11.7 °C 1022.9 hPa Calm     98 % 0.0 mm
10:22 12.1 °C 11.8 °C 1022.9 hPa Calm     98 % 0.0 mm
10:32 12.2 °C 11.7 °C 1023.2 hPa Calm     97 % 0.0 mm
10:37 12.2 °C 11.7 °C 1023.2 hPa Calm     97 % 0.0 mm
10:42 12.3 °C 11.8 °C 1023.2 hPa Calm     97 % 0.0 mm
10:47 12.7 °C 12.4 °C 1023.2 hPa Calm     98 % 0.0 mm
10:52 12.8 °C 12.5 °C 1023.2 hPa Calm     98 % 0.0 mm
10:57 12.8 °C 12.5 °C 1023.2 hPa Calm     98 % 0.0 mm
11:02 13.1 °C 12.8 °C 1023.2 hPa Calm     98 % 0.0 mm
11:12 13.8 °C 13.5 °C 1023.2 hPa Calm   6.4 km/h 98 % 0.0 mm
11:17 13.9 °C 13.6 °C 1023.2 hPa Calm   6.4 km/h 98 % 0.0 mm
11:22 14.0 °C 13.5 °C 1023.2 hPa Calm   6.4 km/h 97 % 0.0 mm
11:32 14.1 °C 13.6 °C 1023.2 hPa Calm   4.8 km/h 97 % 0.0 mm
11:37 14.3 °C 13.8 °C 1023.2 hPa Calm   4.8 km/h 97 % 0.0 mm
11:42 14.4 °C 13.9 °C 1023.2 hPa ESE 1.6 km/h 4.8 km/h 97 % 0.0 mm
11:47 14.4 °C 13.9 °C 1023.2 hPa SE 1.6 km/h 4.8 km/h 97 % 0.0 mm
11:52 14.5 °C 14.0 °C 1023.2 hPa East 1.6 km/h 4.8 km/h 97 % 0.0 mm
12:02 14.9 °C 14.4 °C 1022.9 hPa Calm   4.8 km/h 97 % 0.0 mm
12:12 15.1 °C 14.6 °C 1022.9 hPa Calm   3.2 km/h 97 % 0.0 mm
12:17 15.2 °C 14.7 °C 1022.9 hPa SSE 3.2 km/h 3.2 km/h 97 % 0.0 mm
12:22 15.4 °C 14.9 °C 1022.9 hPa ENE 1.6 km/h 3.2 km/h 97 % 0.0 mm
12:27 15.4 °C 14.9 °C 1022.9 hPa East 1.6 km/h 6.4 km/h 97 % 0.0 mm
12:32 15.6 °C 15.1 °C 1022.9 hPa Calm   6.4 km/h 97 % 0.0 mm
12:42 15.9 °C 15.4 °C 1022.6 hPa East 4.8 km/h 4.8 km/h 97 % 0.0 mm
12:52 16.6 °C 16.1 °C 1022.6 hPa ESE 1.6 km/h 4.8 km/h 97 % 0.0 mm
12:57 16.7 °C 16.1 °C 1022.6 hPa East 3.2 km/h 9.7 km/h 96 % 0.0 mm
13:02 17.0 °C 16.4 °C 1022.6 hPa SSE 1.6 km/h 9.7 km/h 96 % 0.0 mm
13:12 17.6 °C 16.5 °C 1022.6 hPa WNW 1.6 km/h 11.3 km/h 93 % 0.0 mm
13:17 18.0 °C 16.7 °C 1022.2 hPa SE 4.8 km/h 11.3 km/h 92 % 0.0 mm
13:22 18.4 °C 16.7 °C 1022.2 hPa Calm   12.9 km/h 90 % 0.0 mm
13:32 19.0 °C 16.2 °C 1022.2 hPa East 3.2 km/h 12.9 km/h 84 % 0.0 mm
13:42 19.2 °C 16.1 °C 1022.2 hPa East 6.4 km/h 8.0 km/h 82 % 0.0 mm
13:47 19.3 °C 16.0 °C 1021.9 hPa SE 4.8 km/h 8.0 km/h 81 % 0.0 mm
13:52 19.4 °C 16.1 °C 1021.9 hPa SE 9.7 km/h 11.3 km/h 81 % 0.0 mm
13:57 19.6 °C 15.5 °C 1021.9 hPa SW 3.2 km/h 11.3 km/h 77 % 0.0 mm
14:02 19.8 °C 15.7 °C 1021.9 hPa SSW 1.6 km/h 11.3 km/h 77 % 0.0 mm
14:12 19.9 °C 15.5 °C 1021.9 hPa SSE 4.8 km/h 14.5 km/h 76 % 0.0 mm
14:17 19.8 °C 15.7 °C 1021.6 hPa SSE 4.8 km/h 14.5 km/h 77 % 0.0 mm
14:22 20.1 °C 15.7 °C 1021.6 hPa SSE 1.6 km/h 14.5 km/h 76 % 0.0 mm
14:32 20.0 °C 15.2 °C 1021.6 hPa ESE 9.7 km/h 14.5 km/h 74 % 0.0 mm
14:37 19.9 °C 15.7 °C 1021.6 hPa Calm   14.5 km/h 77 % 0.0 mm
14:42 20.2 °C 15.8 °C 1021.6 hPa SSW 1.6 km/h 14.5 km/h 76 % 0.0 mm
14:47 20.3 °C 15.5 °C 1021.6 hPa South 8.0 km/h 14.5 km/h 74 % 0.0 mm
14:52 20.2 °C 15.2 °C 1021.6 hPa SSE 4.8 km/h 11.3 km/h 73 % 0.0 mm
14:57 20.2 °C 15.4 °C 1021.6 hPa SSE 4.8 km/h 11.3 km/h 74 % 0.0 mm
15:02 20.3 °C 15.5 °C 1021.6 hPa South 9.7 km/h 11.3 km/h 74 % 0.0 mm
15:12 20.6 °C 16.0 °C 1021.6 hPa SSE 3.2 km/h 9.7 km/h 75 % 0.0 mm
15:22 21.3 °C 16.0 °C 1021.6 hPa Calm   9.7 km/h 72 % 0.0 mm
15:32 21.1 °C 15.9 °C 1021.2 hPa ESE 3.2 km/h 9.7 km/h 72 % 0.0 mm
15:42 20.9 °C 15.7 °C 1021.6 hPa SE 1.6 km/h 9.7 km/h 72 % 0.0 mm
15:47 21.1 °C 15.6 °C 1021.2 hPa SW 8.0 km/h 11.3 km/h 71 % 0.0 mm
15:52 21.1 °C 15.4 °C 1021.2 hPa SSE 4.8 km/h 11.3 km/h 70 % 0.0 mm
15:57 20.9 °C 15.7 °C 1021.2 hPa East 1.6 km/h 11.3 km/h 72 % 0.0 mm
16:02 21.0 °C 15.8 °C 1021.2 hPa Calm   11.3 km/h 72 % 0.0 mm
16:12 21.5 °C 15.3 °C 1021.2 hPa Calm   11.3 km/h 68 % 0.0 mm
16:17 21.5 °C 15.6 °C 1021.2 hPa SW 9.7 km/h 11.3 km/h 69 % 0.0 mm
16:22 21.5 °C 15.6 °C 1021.2 hPa SSW 1.6 km/h 8.0 km/h 69 % 0.0 mm
16:32 21.7 °C 15.5 °C 1020.9 hPa SW 6.4 km/h 9.7 km/h 68 % 0.0 mm
16:37 21.7 °C 15.3 °C 1020.9 hPa SE 1.6 km/h 9.7 km/h 67 % 0.0 mm
16:42 21.8 °C 15.6 °C 1020.9 hPa SW 11.3 km/h 11.3 km/h 68 % 0.0 mm
16:47 22.0 °C 15.1 °C 1020.9 hPa Calm   9.7 km/h 65 % 0.0 mm
16:52 22.2 °C 15.5 °C 1020.9 hPa SE 1.6 km/h 11.3 km/h 66 % 0.0 mm
16:57 22.3 °C 15.4 °C 1020.9 hPa SSW 3.2 km/h 11.3 km/h 65 % 0.0 mm
17:02 22.2 °C 15.1 °C 1020.9 hPa Calm   11.3 km/h 64 % 0.0 mm
17:12 22.3 °C 15.4 °C 1020.9 hPa SW 4.8 km/h 9.7 km/h 65 % 0.0 mm
17:17 22.4 °C 15.0 °C 1020.9 hPa SW 3.2 km/h 8.0 km/h 63 % 0.0 mm
17:22 22.3 °C 14.9 °C 1020.9 hPa SSW 3.2 km/h 8.0 km/h 63 % 0.0 mm
17:27 22.3 °C 14.9 °C 1020.9 hPa Calm   8.0 km/h 63 % 0.0 mm
17:32 22.6 °C 15.4 °C 1020.9 hPa SSW 3.2 km/h 8.0 km/h 64 % 0.0 mm
17:37 22.4 °C 15.0 °C 1020.9 hPa East 1.6 km/h 6.4 km/h 63 % 0.0 mm
17:42 21.9 °C 15.0 °C 1020.9 hPa Calm   6.4 km/h 65 % 0.0 mm
17:47 21.6 °C 14.7 °C 1020.9 hPa ESE 1.6 km/h 4.8 km/h 65 % 0.0 mm
17:52 21.4 °C 15.0 °C 1020.9 hPa Calm   4.8 km/h 67 % 0.0 mm
18:02 21.7 °C 15.1 °C 1020.9 hPa Calm   3.2 km/h 66 % 0.0 mm
18:12 21.6 °C 15.0 °C 1021.2 hPa SSE 1.6 km/h 3.2 km/h 66 % 0.0 mm
18:17 21.6 °C 15.2 °C 1021.2 hPa Calm   3.2 km/h 67 % 0.0 mm
18:22 21.7 °C 15.3 °C 1021.2 hPa Calm   3.2 km/h 67 % 0.0 mm
18:32 21.8 °C 15.2 °C 1020.9 hPa Calm   1.6 km/h 66 % 0.0 mm
18:37 21.6 °C 15.2 °C 1020.9 hPa Calm   1.6 km/h 67 % 0.0 mm
18:42 21.3 °C 15.4 °C 1020.9 hPa ENE 1.6 km/h 3.2 km/h 69 % 0.0 mm
18:47 20.9 °C 15.2 °C 1020.9 hPa East 1.6 km/h 3.2 km/h 70 % 0.0 mm
18:57 20.4 °C 15.4 °C 1020.9 hPa East 3.2 km/h 4.8 km/h 73 % 0.0 mm
19:07 20.0 °C 15.2 °C 1020.9 hPa East 4.8 km/h 4.8 km/h 74 % 0.0 mm
19:12 19.8 °C 15.0 °C 1020.9 hPa East 4.8 km/h 4.8 km/h 74 % 0.0 mm
19:17 19.7 °C 14.9 °C 1021.2 hPa East 1.6 km/h 6.4 km/h 74 % 0.0 mm
19:22 19.6 °C 15.0 °C 1021.2 hPa Calm   6.4 km/h 75 % 0.0 mm
19:27 19.4 °C 14.9 °C 1021.2 hPa Calm   4.8 km/h 75 % 0.0 mm
19:32 19.2 °C 14.9 °C 1021.2 hPa Calm   4.8 km/h 76 % 0.0 mm
19:42 18.7 °C 14.8 °C 1021.2 hPa Calm   1.6 km/h 78 % 0.0 mm
19:47 18.4 °C 14.9 °C 1021.2 hPa Calm     80 % 0.0 mm
19:52 18.2 °C 14.7 °C 1021.2 hPa Calm     80 % 0.0 mm
19:57 18.1 °C 14.8 °C 1021.2 hPa Calm     81 % 0.0 mm
20:02 17.8 °C 14.7 °C 1021.2 hPa Calm     82 % 0.0 mm
20:07 17.7 °C 14.6 °C 1021.6 hPa WNW 1.6 km/h 1.6 km/h 82 % 0.0 mm
20:12 17.3 °C 14.6 °C 1021.2 hPa Calm   1.6 km/h 84 % 0.0 mm
20:17 17.2 °C 14.5 °C 1021.2 hPa Calm   1.6 km/h 84 % 0.0 mm
20:22 17.3 °C 14.6 °C 1021.2 hPa North 1.6 km/h 1.6 km/h 84 % 0.0 mm
20:32 17.2 °C 14.5 °C 1021.2 hPa Calm   3.2 km/h 84 % 0.0 mm
20:37 17.2 °C 14.5 °C 1021.2 hPa Calm   1.6 km/h 84 % 0.0 mm
20:42 16.9 °C 14.4 °C 1021.6 hPa NNW 1.6 km/h 1.6 km/h 85 % 0.0 mm
20:47 16.5 °C 14.1 °C 1021.6 hPa NNW 1.6 km/h 1.6 km/h 86 % 0.0 mm
20:52 16.3 °C 14.1 °C 1021.6 hPa NW 3.2 km/h 3.2 km/h 87 % 0.0 mm
20:57 16.2 °C 14.2 °C 1021.6 hPa Calm   3.2 km/h 88 % 0.0 mm
21:02 16.0 °C 14.2 °C 1021.6 hPa Calm   3.2 km/h 89 % 0.0 mm
21:07 16.0 °C 14.2 °C 1021.6 hPa Calm   3.2 km/h 89 % 0.0 mm
21:12 15.9 °C 14.1 °C 1021.6 hPa NW 3.2 km/h 3.2 km/h 89 % 0.0 mm
21:17 15.7 °C 14.1 °C 1021.6 hPa NW 1.6 km/h 1.6 km/h 90 % 0.0 mm
21:22 15.6 °C 14.1 °C 1021.6 hPa NW 3.2 km/h 3.2 km/h 91 % 0.0 mm
21:27 15.5 °C 14.2 °C 1021.6 hPa NW 1.6 km/h 3.2 km/h 92 % 0.0 mm
21:32 15.5 °C 14.2 °C 1021.9 hPa NW 1.6 km/h 3.2 km/h 92 % 0.0 mm
21:42 15.4 °C 14.1 °C 1021.6 hPa Calm   3.2 km/h 92 % 0.0 mm
21:47 15.4 °C 13.9 °C 1021.9 hPa ENE 9.7 km/h 9.7 km/h 91 % 0.0 mm
21:52 15.3 °C 14.0 °C 1021.9 hPa NE 1.6 km/h 1.6 km/h 92 % 0.0 mm
21:57 15.5 °C 14.0 °C 1021.9 hPa Calm   11.3 km/h 91 % 0.0 mm
22:02 15.4 °C 13.8 °C 1021.9 hPa Calm   11.3 km/h 90 % 0.0 mm
22:12 15.4 °C 13.9 °C 1021.9 hPa Calm   4.8 km/h 91 % 0.0 mm
22:17 15.4 °C 13.8 °C 1021.9 hPa Calm   1.6 km/h 90 % 0.0 mm
22:22 15.4 °C 13.9 °C 1021.9 hPa Calm   1.6 km/h 91 % 0.0 mm
22:27 15.4 °C 13.8 °C 1021.9 hPa North 1.6 km/h 1.6 km/h 90 % 0.0 mm
22:32 15.4 °C 13.8 °C 1021.9 hPa Calm   1.6 km/h 90 % 0.0 mm
22:37 15.4 °C 13.9 °C 1021.9 hPa Calm   3.2 km/h 91 % 0.0 mm
22:42 15.4 °C 13.8 °C 1021.9 hPa Calm   3.2 km/h 90 % 0.0 mm
22:47 15.3 °C 13.7 °C 1021.9 hPa Calm   1.6 km/h 90 % 0.0 mm
22:52 15.3 °C 13.8 °C 1021.9 hPa Calm   1.6 km/h 91 % 0.0 mm
22:57 15.2 °C 13.7 °C 1021.9 hPa Calm   1.6 km/h 91 % 0.0 mm
23:02 15.0 °C 13.7 °C 1021.9 hPa Calm   1.6 km/h 92 % 0.0 mm
23:07 14.9 °C 13.6 °C 1021.9 hPa Calm   1.6 km/h 92 % 0.0 mm
23:12 14.8 °C 13.5 °C 1021.9 hPa NW 1.6 km/h 1.6 km/h 92 % 0.0 mm
23:17 14.8 °C 13.7 °C 1021.9 hPa Calm   1.6 km/h 93 % 0.0 mm
23:22 14.7 °C 13.4 °C 1021.9 hPa Calm   1.6 km/h 92 % 0.0 mm
23:32 14.7 °C 13.6 °C 1021.9 hPa Calm   3.2 km/h 93 % 0.0 mm
23:37 14.7 °C 13.4 °C 1021.9 hPa Calm   3.2 km/h 92 % 0.0 mm
23:42 14.7 °C 13.4 °C 1021.9 hPa Calm   3.2 km/h 92 % 0.0 mm
23:47 14.8 °C 13.5 °C 1021.9 hPa Calm   3.2 km/h 92 % 0.0 mm
23:52 14.8 °C 13.5 °C 1021.9 hPa Calm   3.2 km/h 92 % 0.0 mm
23:57 14.8 °C 13.3 °C 1021.9 hPa Calm   1.6 km/h 91 % 0.0 mm
Meteo18
Compliments of Weather Underground - 4 mb

Script developed by  Jim McMurry - jmcmurry@mwt.net Adapted for the template by  Wim van der Kuil - Leuven-Template.eu

You find our weather info also at:

European Weather Network

Weather Underground

Equipment we use:

Weather-station
Davis Vue

Weather-program
Meteohub

Weather-server
Raspberry PI 2 B+

Provider
1 and 1

Davis Vue

Meteohub

Raspberry PI 2 B+

1 and 1